sensor_id;sensor_type;location;lat;lon;timestamp;pressure;altitude;pressure_sealevel;temperature;humidity
25722;BME280;13578;53.450;15.496;2023-05-27T00:00:45;100913.38;;;6.59;100.00
25722;BME280;13578;53.450;15.496;2023-05-27T00:03:46;100911.94;;;6.51;100.00
25722;BME280;13578;53.450;15.496;2023-05-27T00:06:47;100910.19;;;6.50;100.00
25722;BME280;13578;53.450;15.496;2023-05-27T00:09:48;100913.00;;;6.49;100.00
25722;BME280;13578;53.450;15.496;2023-05-27T00:12:48;100913.31;;;6.43;100.00
25722;BME280;13578;53.450;15.496;2023-05-27T00:15:49;100920.28;;;6.48;100.00
25722;BME280;13578;53.450;15.496;2023-05-27T00:18:50;100916.13;;;6.41;100.00
25722;BME280;13578;53.450;15.496;2023-05-27T00:21:50;100910.88;;;6.54;100.00
25722;BME280;13578;53.450;15.496;2023-05-27T00:24:55;100906.75;;;6.47;100.00
25722;BME280;13578;53.450;15.496;2023-05-27T00:27:56;100902.03;;;6.33;100.00
25722;BME280;13578;53.450;15.496;2023-05-27T00:30:57;100901.25;;;6.31;100.00
25722;BME280;13578;53.450;15.496;2023-05-27T00:33:58;100912.94;;;6.33;100.00
25722;BME280;13578;53.450;15.496;2023-05-27T00:36:58;100905.91;;;6.29;100.00
25722;BME280;13578;53.450;15.496;2023-05-27T00:39:59;100907.16;;;6.39;100.00
25722;BME280;13578;53.450;15.496;2023-05-27T00:43:00;100902.81;;;6.68;100.00
25722;BME280;13578;53.450;15.496;2023-05-27T00:46:00;100904.94;;;6.79;100.00
25722;BME280;13578;53.450;15.496;2023-05-27T00:49:01;100907.66;;;6.79;100.00
25722;BME280;13578;53.450;15.496;2023-05-27T00:52:02;100908.09;;;6.72;100.00
25722;BME280;13578;53.450;15.496;2023-05-27T00:55:03;100905.28;;;6.73;100.00
25722;BME280;13578;53.450;15.496;2023-05-27T00:58:04;100910.28;;;6.65;100.00
25722;BME280;13578;53.450;15.496;2023-05-27T01:01:05;100903.75;;;6.51;100.00
25722;BME280;13578;53.450;15.496;2023-05-27T01:04:05;100911.94;;;6.51;100.00
25722;BME280;13578;53.450;15.496;2023-05-27T01:07:13;100912.53;;;6.41;100.00
25722;BME280;13578;53.450;15.496;2023-05-27T01:10:32;100914.00;;;6.30;100.00
25722;BME280;13578;53.450;15.496;2023-05-27T01:13:43;100907.34;;;6.36;100.00
25722;BME280;13578;53.450;15.496;2023-05-27T01:16:46;100906.63;;;6.32;100.00
25722;BME280;13578;53.450;15.496;2023-05-27T01:19:49;100905.41;;;6.38;100.00
25722;BME280;13578;53.450;15.496;2023-05-27T01:22:51;100906.63;;;6.32;100.00
25722;BME280;13578;53.450;15.496;2023-05-27T01:25:52;100911.38;;;6.11;100.00
25722;BME280;13578;53.450;15.496;2023-05-27T01:28:53;100898.81;;;6.09;100.00
25722;BME280;13578;53.450;15.496;2023-05-27T01:32:10;100901.56;;;6.25;100.00
25722;BME280;13578;53.450;15.496;2023-05-27T01:35:20;100908.16;;;6.20;100.00
25722;BME280;13578;53.450;15.496;2023-05-27T01:38:25;100901.88;;;6.02;100.00
25722;BME280;13578;53.450;15.496;2023-05-27T01:41:26;100896.81;;;5.95;100.00
25722;BME280;13578;53.450;15.496;2023-05-27T01:44:29;100901.16;;;5.99;100.00
25722;BME280;13578;53.450;15.496;2023-05-27T01:47:31;100898.06;;;5.87;100.00
25722;BME280;13578;53.450;15.496;2023-05-27T01:50:31;100900.06;;;5.84;100.00
25722;BME280;13578;53.450;15.496;2023-05-27T01:53:34;100900.00;;;5.85;100.00
25722;BME280;13578;53.450;15.496;2023-05-27T01:56:34;100892.22;;;5.78;100.00
25722;BME280;13578;53.450;15.496;2023-05-27T01:59:35;100896.81;;;5.77;100.00
25722;BME280;13578;53.450;15.496;2023-05-27T02:02:36;100905.28;;;5.88;100.00
25722;BME280;13578;53.450;15.496;2023-05-27T02:05:36;100905.44;;;5.68;100.00
25722;BME280;13578;53.450;15.496;2023-05-27T02:08:37;100908.97;;;5.70;100.00
25722;BME280;13578;53.450;15.496;2023-05-27T02:11:37;100900.34;;;5.62;100.00
25722;BME280;13578;53.450;15.496;2023-05-27T02:14:38;100899.34;;;5.80;100.00
25722;BME280;13578;53.450;15.496;2023-05-27T02:17:39;100893.03;;;5.80;100.00
25722;BME280;13578;53.450;15.496;2023-05-27T02:20:39;100900.06;;;5.84;100.00
25722;BME280;13578;53.450;15.496;2023-05-27T02:23:40;100889.59;;;5.76;100.00
25722;BME280;13578;53.450;15.496;2023-05-27T02:26:41;100894.13;;;5.93;100.00
25722;BME280;13578;53.450;15.496;2023-05-27T02:29:41;100896.00;;;5.75;100.00
25722;BME280;13578;53.450;15.496;2023-05-27T02:32:42;100894.88;;;5.62;100.00
25722;BME280;13578;53.450;15.496;2023-05-27T02:35:45;100893.28;;;5.57;100.00
25722;BME280;13578;53.450;15.496;2023-05-27T02:38:46;100884.47;;;5.52;100.00
25722;BME280;13578;53.450;15.496;2023-05-27T02:41:46;100888.84;;;5.55;100.00
25722;BME280;13578;53.450;15.496;2023-05-27T02:44:47;100892.25;;;5.60;100.00
25722;BME280;13578;53.450;15.496;2023-05-27T02:47:48;100900.06;;;5.49;100.00
25722;BME280;13578;53.450;15.496;2023-05-27T02:50:48;100903.19;;;5.41;100.00
25722;BME280;13578;53.450;15.496;2023-05-27T02:53:52;100895.22;;;5.55;100.00
25722;BME280;13578;53.450;15.496;2023-05-27T02:56:52;100908.19;;;5.50;100.00
25722;BME280;13578;53.450;15.496;2023-05-27T02:59:53;100912.34;;;5.57;100.00
25722;BME280;13578;53.450;15.496;2023-05-27T03:02:54;100913.81;;;5.65;100.00
25722;BME280;13578;53.450;15.496;2023-05-27T03:05:54;100915.47;;;5.67;100.00
25722;BME280;13578;53.450;15.496;2023-05-27T03:08:55;100916.19;;;5.71;100.00
25722;BME280;13578;53.450;15.496;2023-05-27T03:11:55;100917.94;;;5.89;100.00
25722;BME280;13578;53.450;15.496;2023-05-27T03:14:56;100925.91;;;6.12;100.00
25722;BME280;13578;53.450;15.496;2023-05-27T03:17:57;100922.88;;;6.34;100.00
25722;BME280;13578;53.450;15.496;2023-05-27T03:20:58;100929.47;;;6.63;100.00
25722;BME280;13578;53.450;15.496;2023-05-27T03:23:58;100935.03;;;6.94;100.00
25722;BME280;13578;53.450;15.496;2023-05-27T03:26:59;100945.34;;;7.21;100.00
25722;BME280;13578;53.450;15.496;2023-05-27T03:30:03;100947.09;;;7.54;100.00
25722;BME280;13578;53.450;15.496;2023-05-27T03:33:04;100956.84;;;7.74;100.00
25722;BME280;13578;53.450;15.496;2023-05-27T03:36:05;100959.34;;;7.93;100.00
25722;BME280;13578;53.450;15.496;2023-05-27T03:39:05;100951.69;;;8.29;100.00
25722;BME280;13578;53.450;15.496;2023-05-27T03:42:07;100946.78;;;8.34;100.00
25722;BME280;13578;53.450;15.496;2023-05-27T03:45:08;100953.59;;;8.57;100.00
25722;BME280;13578;53.450;15.496;2023-05-27T03:48:08;100961.03;;;8.69;100.00
25722;BME280;13578;53.450;15.496;2023-05-27T03:51:09;100965.91;;;8.93;100.00
25722;BME280;13578;53.450;15.496;2023-05-27T03:54:10;100959.13;;;9.13;100.00
25722;BME280;13578;53.450;15.496;2023-05-27T03:57:11;100967.69;;;9.36;100.00
25722;BME280;13578;53.450;15.496;2023-05-27T04:00:12;100976.69;;;9.65;100.00
25722;BME280;13578;53.450;15.496;2023-05-27T04:03:12;100976.13;;;10.00;100.00
25722;BME280;13578;53.450;15.496;2023-05-27T04:06:13;100981.88;;;10.23;100.00
25722;BME280;13578;53.450;15.496;2023-05-27T04:09:13;100984.25;;;10.42;100.00
25722;BME280;13578;53.450;15.496;2023-05-27T04:12:14;100995.78;;;10.60;100.00
25722;BME280;13578;53.450;15.496;2023-05-27T04:15:15;100982.19;;;10.72;100.00
25722;BME280;13578;53.450;15.496;2023-05-27T04:18:15;100987.97;;;10.80;100.00
25722;BME280;13578;53.450;15.496;2023-05-27T04:21:16;100989.84;;;10.79;100.00
25722;BME280;13578;53.450;15.496;2023-05-27T04:24:17;100991.38;;;10.96;100.00
25722;BME280;13578;53.450;15.496;2023-05-27T04:27:17;100995.88;;;11.10;100.00
25722;BME280;13578;53.450;15.496;2023-05-27T04:30:19;100997.56;;;11.24;100.00
25722;BME280;13578;53.450;15.496;2023-05-27T04:33:20;100997.06;;;11.56;100.00
25722;BME280;13578;53.450;15.496;2023-05-27T04:36:21;100995.50;;;11.89;100.00
25722;BME280;13578;53.450;15.496;2023-05-27T04:39:25;101001.03;;;12.25;100.00
25722;BME280;13578;53.450;15.496;2023-05-27T04:42:25;101002.50;;;12.53;100.00
25722;BME280;13578;53.450;15.496;2023-05-27T04:45:26;101003.00;;;12.59;100.00
25722;BME280;13578;53.450;15.496;2023-05-27T04:48:29;101006.75;;;12.58;100.00
25722;BME280;13578;53.450;15.496;2023-05-27T04:51:30;101003.88;;;12.59;100.00
25722;BME280;13578;53.450;15.496;2023-05-27T04:54:30;101004.13;;;12.56;100.00
25722;BME280;13578;53.450;15.496;2023-05-27T04:57:31;101009.97;;;12.40;100.00
25722;BME280;13578;53.450;15.496;2023-05-27T05:00:33;101009.91;;;12.29;100.00
25722;BME280;13578;53.450;15.496;2023-05-27T05:03:38;101014.38;;;11.94;100.00
25722;BME280;13578;53.450;15.496;2023-05-27T05:06:50;101008.34;;;11.65;100.00
25722;BME280;13578;53.450;15.496;2023-05-27T05:09:52;101004.63;;;11.66;100.00
25722;BME280;13578;53.450;15.496;2023-05-27T05:12:53;101010.50;;;11.72;100.00
25722;BME280;13578;53.450;15.496;2023-05-27T05:15:53;101006.19;;;11.81;100.00
25722;BME280;13578;53.450;15.496;2023-05-27T05:18:54;101002.31;;;11.97;100.00
25722;BME280;13578;53.450;15.496;2023-05-27T05:21:55;100997.13;;;12.16;100.00
25722;BME280;13578;53.450;15.496;2023-05-27T05:24:55;100998.53;;;12.22;100.00
25722;BME280;13578;53.450;15.496;2023-05-27T05:27:56;101003.56;;;12.39;100.00
25722;BME280;13578;53.450;15.496;2023-05-27T05:30:57;101005.03;;;12.68;100.00
25722;BME280;13578;53.450;15.496;2023-05-27T05:33:57;101010.31;;;12.82;100.00
25722;BME280;13578;53.450;15.496;2023-05-27T05:36:58;100996.91;;;13.00;100.00
25722;BME280;13578;53.450;15.496;2023-05-27T05:39:58;101008.44;;;13.17;100.00
25722;BME280;13578;53.450;15.496;2023-05-27T05:42:59;101007.19;;;13.44;100.00
25722;BME280;13578;53.450;15.496;2023-05-27T05:46:00;101002.66;;;13.43;100.00
25722;BME280;13578;53.450;15.496;2023-05-27T05:49:02;101003.03;;;13.49;100.00
25722;BME280;13578;53.450;15.496;2023-05-27T05:52:03;101007.16;;;13.55;100.00
25722;BME280;13578;53.450;15.496;2023-05-27T05:55:04;101003.66;;;13.42;100.00
25722;BME280;13578;53.450;15.496;2023-05-27T05:58:06;101010.81;;;13.44;100.00
25722;BME280;13578;53.450;15.496;2023-05-27T06:01:06;101008.38;;;13.62;100.00
25722;BME280;13578;53.450;15.496;2023-05-27T06:04:07;101013.03;;;13.62;100.00
25722;BME280;13578;53.450;15.496;2023-05-27T06:07:08;101019.56;;;13.61;100.00
25722;BME280;13578;53.450;15.496;2023-05-27T06:10:09;101021.91;;;13.77;100.00
25722;BME280;13578;53.450;15.496;2023-05-27T06:13:10;101024.19;;;14.04;100.00
25722;BME280;13578;53.450;15.496;2023-05-27T06:16:11;101023.53;;;14.44;100.00
25722;BME280;13578;53.450;15.496;2023-05-27T06:19:11;101027.72;;;14.60;100.00
25722;BME280;13578;53.450;15.496;2023-05-27T06:22:12;101023.47;;;14.77;100.00
25722;BME280;13578;53.450;15.496;2023-05-27T06:25:13;101019.03;;;14.86;100.00
25722;BME280;13578;53.450;15.496;2023-05-27T06:28:14;101034.41;;;14.79;100.00
25722;BME280;13578;53.450;15.496;2023-05-27T06:31:14;101037.75;;;15.03;100.00
25722;BME280;13578;53.450;15.496;2023-05-27T06:34:15;101015.63;;;15.03;100.00
25722;BME280;13578;53.450;15.496;2023-05-27T06:37:16;101020.66;;;15.19;100.00
25722;BME280;13578;53.450;15.496;2023-05-27T06:40:17;101027.50;;;14.94;100.00
25722;BME280;13578;53.450;15.496;2023-05-27T06:43:18;101024.16;;;14.69;100.00
25722;BME280;13578;53.450;15.496;2023-05-27T06:46:18;101030.97;;;14.86;100.00
25722;BME280;13578;53.450;15.496;2023-05-27T06:49:19;101032.59;;;15.20;100.00
25722;BME280;13578;53.450;15.496;2023-05-27T06:52:20;101017.53;;;15.44;100.00
25722;BME280;13578;53.450;15.496;2023-05-27T06:55:21;101024.41;;;15.49;100.00
25722;BME280;13578;53.450;15.496;2023-05-27T06:58:22;101014.84;;;15.63;100.00
25722;BME280;13578;53.450;15.496;2023-05-27T07:01:22;100998.69;;;15.78;100.00
25722;BME280;13578;53.450;15.496;2023-05-27T07:04:23;100998.88;;;15.96;100.00
25722;BME280;13578;53.450;15.496;2023-05-27T07:07:24;100988.19;;;15.82;100.00
25722;BME280;13578;53.450;15.496;2023-05-27T07:10:24;100982.28;;;15.86;100.00
25722;BME280;13578;53.450;15.496;2023-05-27T07:13:25;100985.03;;;15.86;100.00
25722;BME280;13578;53.450;15.496;2023-05-27T07:16:26;100960.72;;;15.90;100.00
25722;BME280;13578;53.450;15.496;2023-05-27T07:19:26;100955.75;;;15.84;97.85
25722;BME280;13578;53.450;15.496;2023-05-27T07:22:27;100972.50;;;16.31;100.00
25722;BME280;13578;53.450;15.496;2023-05-27T07:25:27;100978.84;;;16.71;100.00
25722;BME280;13578;53.450;15.496;2023-05-27T07:28:28;100936.63;;;16.87;91.73
25722;BME280;13578;53.450;15.496;2023-05-27T07:31:29;100912.59;;;16.78;83.80
25722;BME280;13578;53.450;15.496;2023-05-27T07:34:29;100926.56;;;16.86;82.08
25722;BME280;13578;53.450;15.496;2023-05-27T07:37:30;100953.56;;;16.94;89.14
25722;BME280;13578;53.450;15.496;2023-05-27T07:40:31;100962.66;;;17.14;87.62
25722;BME280;13578;53.450;15.496;2023-05-27T07:43:32;100970.31;;;17.30;89.41
25722;BME280;13578;53.450;15.496;2023-05-27T07:46:32;100941.91;;;17.46;82.98
25722;BME280;13578;53.450;15.496;2023-05-27T07:49:34;100932.81;;;17.54;79.40
25722;BME280;13578;53.450;15.496;2023-05-27T07:52:34;100926.78;;;17.58;77.27
25722;BME280;13578;53.450;15.496;2023-05-27T07:55:35;100938.38;;;17.26;79.51
25722;BME280;13578;53.450;15.496;2023-05-27T07:58:36;100965.91;;;17.09;84.85
25722;BME280;13578;53.450;15.496;2023-05-27T08:01:36;100936.97;;;17.22;80.84
25722;BME280;13578;53.450;15.496;2023-05-27T08:04:37;100928.16;;;17.26;78.50
25722;BME280;13578;53.450;15.496;2023-05-27T08:07:37;100929.38;;;17.42;77.43
25722;BME280;13578;53.450;15.496;2023-05-27T08:10:38;100937.63;;;17.52;82.73
25722;BME280;13578;53.450;15.496;2023-05-27T08:13:39;100939.91;;;17.84;81.83
25722;BME280;13578;53.450;15.496;2023-05-27T08:16:40;100937.84;;;18.04;80.93
25722;BME280;13578;53.450;15.496;2023-05-27T08:19:40;100894.44;;;18.03;72.02
25722;BME280;13578;53.450;15.496;2023-05-27T08:22:41;100879.03;;;17.73;67.17
25722;BME280;13578;53.450;15.496;2023-05-27T08:25:42;100909.84;;;17.98;72.85
25722;BME280;13578;53.450;15.496;2023-05-27T08:28:43;100881.09;;;18.07;66.78
25722;BME280;13578;53.450;15.496;2023-05-27T08:31:46;100896.72;;;17.72;66.59
25722;BME280;13578;53.450;15.496;2023-05-27T08:34:47;100904.28;;;17.61;69.04
25722;BME280;13578;53.450;15.496;2023-05-27T08:37:48;100878.16;;;17.90;66.15
25722;BME280;13578;53.450;15.496;2023-05-27T08:40:48;100887.59;;;18.16;65.62
25722;BME280;13578;53.450;15.496;2023-05-27T08:43:49;100868.03;;;17.45;63.00
25722;BME280;13578;53.450;15.496;2023-05-27T08:46:51;100855.09;;;17.54;62.49
25722;BME280;13578;53.450;15.496;2023-05-27T08:49:51;100872.22;;;17.67;63.07
25722;BME280;13578;53.450;15.496;2023-05-27T08:52:53;100869.59;;;17.84;62.56
25722;BME280;13578;53.450;15.496;2023-05-27T08:55:56;100860.97;;;18.05;60.37
25722;BME280;13578;53.450;15.496;2023-05-27T08:58:58;100860.31;;;17.93;60.66
25722;BME280;13578;53.450;15.496;2023-05-27T09:02:00;100875.06;;;17.93;63.13
25722;BME280;13578;53.450;15.496;2023-05-27T09:05:02;100881.63;;;17.92;63.13
25722;BME280;13578;53.450;15.496;2023-05-27T09:08:03;100869.50;;;17.93;62.00
25722;BME280;13578;53.450;15.496;2023-05-27T09:11:04;100878.59;;;17.96;63.23
25722;BME280;13578;53.450;15.496;2023-05-27T09:14:08;100864.78;;;18.04;60.33
25722;BME280;13578;53.450;15.496;2023-05-27T09:17:08;100875.75;;;18.32;62.04
25722;BME280;13578;53.450;15.496;2023-05-27T09:20:09;100851.91;;;18.55;59.84
25722;BME280;13578;53.450;15.496;2023-05-27T09:23:11;100836.47;;;18.27;56.61
25722;BME280;13578;53.450;15.496;2023-05-27T09:26:12;100823.88;;;18.14;55.90
25722;BME280;13578;53.450;15.496;2023-05-27T09:29:13;100846.31;;;18.47;59.17
25722;BME280;13578;53.450;15.496;2023-05-27T09:32:26;100850.88;;;18.56;58.86
25722;BME280;13578;53.450;15.496;2023-05-27T09:35:30;100863.69;;;18.84;61.77
25722;BME280;13578;53.450;15.496;2023-05-27T09:38:31;100861.88;;;18.93;61.10
25722;BME280;13578;53.450;15.496;2023-05-27T09:41:32;100861.38;;;19.05;60.69
25722;BME280;13578;53.450;15.496;2023-05-27T09:44:36;100845.22;;;19.09;58.91
25722;BME280;13578;53.450;15.496;2023-05-27T09:47:48;100819.13;;;18.94;54.99
25722;BME280;13578;53.450;15.496;2023-05-27T09:50:50;100827.56;;;18.49;56.94
25722;BME280;13578;53.450;15.496;2023-05-27T09:53:54;100838.19;;;18.54;57.09
25722;BME280;13578;53.450;15.496;2023-05-27T09:56:57;100834.44;;;18.71;57.85
25722;BME280;13578;53.450;15.496;2023-05-27T09:59:59;100860.41;;;18.88;59.84
25722;BME280;13578;53.450;15.496;2023-05-27T10:03:01;100827.50;;;19.10;56.45
25722;BME280;13578;53.450;15.496;2023-05-27T10:06:04;100844.88;;;19.12;57.35
25722;BME280;13578;53.450;15.496;2023-05-27T10:09:05;100821.38;;;19.07;55.90
25722;BME280;13578;53.450;15.496;2023-05-27T10:12:06;100831.94;;;18.95;56.37
25722;BME280;13578;53.450;15.496;2023-05-27T10:15:08;100816.34;;;18.94;55.72
25722;BME280;13578;53.450;15.496;2023-05-27T10:18:09;100799.34;;;19.13;54.40
25722;BME280;13578;53.450;15.496;2023-05-27T10:21:18;100802.91;;;18.89;54.49
25722;BME280;13578;53.450;15.496;2023-05-27T10:24:31;100825.75;;;19.17;57.29
25722;BME280;13578;53.450;15.496;2023-05-27T10:27:50;100822.34;;;19.40;55.34
25722;BME280;13578;53.450;15.496;2023-05-27T10:30:51;100795.19;;;19.26;53.99
25722;BME280;13578;53.450;15.496;2023-05-27T10:33:52;100834.16;;;19.34;58.02
25722;BME280;13578;53.450;15.496;2023-05-27T10:36:59;100795.88;;;19.19;53.93
25722;BME280;13578;53.450;15.496;2023-05-27T10:40:04;100791.66;;;18.30;53.98
25722;BME280;13578;53.450;15.496;2023-05-27T10:43:15;100783.06;;;18.41;52.58
25722;BME280;13578;53.450;15.496;2023-05-27T10:46:16;100815.44;;;18.93;56.74
25722;BME280;13578;53.450;15.496;2023-05-27T10:49:23;100790.97;;;19.05;53.77
25722;BME280;13578;53.450;15.496;2023-05-27T10:52:25;100811.50;;;19.12;56.54
25722;BME280;13578;53.450;15.496;2023-05-27T10:55:32;100799.72;;;19.27;55.48
25722;BME280;13578;53.450;15.496;2023-05-27T10:58:34;100794.69;;;19.47;55.08
25722;BME280;13578;53.450;15.496;2023-05-27T11:01:36;100782.50;;;19.31;54.26
25722;BME280;13578;53.450;15.496;2023-05-27T11:04:37;100778.50;;;19.34;53.66
25722;BME280;13578;53.450;15.496;2023-05-27T11:07:39;100782.69;;;19.63;54.36
25722;BME280;13578;53.450;15.496;2023-05-27T11:10:42;100788.63;;;19.60;54.52
25722;BME280;13578;53.450;15.496;2023-05-27T11:13:44;100781.84;;;19.71;54.43
25722;BME280;13578;53.450;15.496;2023-05-27T11:16:47;100764.56;;;19.75;52.46
25722;BME280;13578;53.450;15.496;2023-05-27T11:19:48;100806.91;;;19.95;56.35
25722;BME280;13578;53.450;15.496;2023-05-27T11:22:50;100747.13;;;20.14;52.84
25722;BME280;13578;53.450;15.496;2023-05-27T11:25:51;100759.00;;;20.17;52.76
25722;BME280;13578;53.450;15.496;2023-05-27T11:28:56;100781.75;;;20.37;54.43
25722;BME280;13578;53.450;15.496;2023-05-27T11:31:57;100741.66;;;20.38;51.45
25722;BME280;13578;53.450;15.496;2023-05-27T11:34:57;100754.41;;;20.32;51.23
25722;BME280;13578;53.450;15.496;2023-05-27T11:37:58;100751.94;;;20.45;52.33
25722;BME280;13578;53.450;15.496;2023-05-27T11:41:08;100753.91;;;20.68;52.38
25722;BME280;13578;53.450;15.496;2023-05-27T11:44:09;100706.38;;;20.13;48.55
25722;BME280;13578;53.450;15.496;2023-05-27T11:47:09;100732.22;;;19.74;50.44
25722;BME280;13578;53.450;15.496;2023-05-27T11:50:10;100728.94;;;19.54;50.69
25722;BME280;13578;53.450;15.496;2023-05-27T11:53:11;100714.69;;;19.41;49.45
25722;BME280;13578;53.450;15.496;2023-05-27T11:56:11;100715.72;;;19.31;49.75
25722;BME280;13578;53.450;15.496;2023-05-27T11:59:12;100731.19;;;19.59;50.62
25722;BME280;13578;53.450;15.496;2023-05-27T12:02:14;100726.09;;;19.79;50.66
25722;BME280;13578;53.450;15.496;2023-05-27T12:05:14;100707.16;;;19.74;50.06
25722;BME280;13578;53.450;15.496;2023-05-27T12:08:15;100721.94;;;20.08;51.15
25722;BME280;13578;53.450;15.496;2023-05-27T12:11:16;100727.59;;;20.31;51.57
25722;BME280;13578;53.450;15.496;2023-05-27T12:14:17;100696.91;;;20.39;49.12
25722;BME280;13578;53.450;15.496;2023-05-27T12:17:17;100729.28;;;20.49;52.86
25722;BME280;13578;53.450;15.496;2023-05-27T12:20:19;100688.16;;;20.42;49.32
25722;BME280;13578;53.450;15.496;2023-05-27T12:23:20;100718.81;;;20.42;52.89
25722;BME280;13578;53.450;15.496;2023-05-27T12:26:21;100701.66;;;20.62;52.28
25722;BME280;13578;53.450;15.496;2023-05-27T12:29:22;100689.28;;;20.65;50.90
25722;BME280;13578;53.450;15.496;2023-05-27T12:32:24;100690.16;;;20.57;50.56
25722;BME280;13578;53.450;15.496;2023-05-27T12:35:25;100672.94;;;20.53;49.15
25722;BME280;13578;53.450;15.496;2023-05-27T12:38:27;100661.25;;;20.58;48.65
25722;BME280;13578;53.450;15.496;2023-05-27T12:41:27;100654.16;;;20.47;47.35
25722;BME280;13578;53.450;15.496;2023-05-27T12:44:28;100667.78;;;20.42;48.88
25722;BME280;13578;53.450;15.496;2023-05-27T12:47:28;100688.47;;;20.56;50.98
25722;BME280;13578;53.450;15.496;2023-05-27T12:50:29;100667.28;;;20.70;50.44
25722;BME280;13578;53.450;15.496;2023-05-27T12:53:30;100629.81;;;20.64;46.74
25722;BME280;13578;53.450;15.496;2023-05-27T12:56:31;100641.59;;;20.51;47.20
25722;BME280;13578;53.450;15.496;2023-05-27T12:59:32;100641.66;;;20.74;47.32
25722;BME280;13578;53.450;15.496;2023-05-27T13:02:33;100640.63;;;20.67;47.38
25722;BME280;13578;53.450;15.496;2023-05-27T13:05:34;100629.72;;;20.57;47.10
25722;BME280;13578;53.450;15.496;2023-05-27T13:08:34;100651.25;;;20.40;48.86
25722;BME280;13578;53.450;15.496;2023-05-27T13:11:35;100667.41;;;20.45;50.15
25722;BME280;13578;53.450;15.496;2023-05-27T13:14:36;100650.69;;;20.45;49.26
25722;BME280;13578;53.450;15.496;2023-05-27T13:17:36;100641.22;;;20.23;48.40
25722;BME280;13578;53.450;15.496;2023-05-27T13:20:37;100634.84;;;20.14;47.88
25722;BME280;13578;53.450;15.496;2023-05-27T13:23:38;100630.78;;;20.25;48.04
25722;BME280;13578;53.450;15.496;2023-05-27T13:26:38;100618.88;;;20.31;47.95
25722;BME280;13578;53.450;15.496;2023-05-27T13:29:40;100643.78;;;20.33;49.53
25722;BME280;13578;53.450;15.496;2023-05-27T13:32:42;100628.16;;;20.55;49.03
25722;BME280;13578;53.450;15.496;2023-05-27T13:35:44;100615.97;;;20.56;47.37
25722;BME280;13578;53.450;15.496;2023-05-27T13:38:44;100628.47;;;20.60;48.93
25722;BME280;13578;53.450;15.496;2023-05-27T13:41:45;100637.22;;;20.88;50.58
25722;BME280;13578;53.450;15.496;2023-05-27T13:44:46;100627.91;;;20.96;49.94
25722;BME280;13578;53.450;15.496;2023-05-27T13:47:46;100613.00;;;21.04;49.00
25722;BME280;13578;53.450;15.496;2023-05-27T13:50:47;100595.97;;;20.99;47.76
25722;BME280;13578;53.450;15.496;2023-05-27T13:53:47;100588.84;;;20.96;46.76
25722;BME280;13578;53.450;15.496;2023-05-27T13:56:51;100582.28;;;20.89;46.47
25722;BME280;13578;53.450;15.496;2023-05-27T13:59:51;100603.25;;;20.85;48.23
25722;BME280;13578;53.450;15.496;2023-05-27T14:02:52;100584.31;;;20.95;47.09
25722;BME280;13578;53.450;15.496;2023-05-27T14:05:54;100579.50;;;20.89;46.43
25722;BME280;13578;53.450;15.496;2023-05-27T14:08:55;100578.69;;;20.80;46.99
25722;BME280;13578;53.450;15.496;2023-05-27T14:11:56;100584.88;;;20.90;48.00
25722;BME280;13578;53.450;15.496;2023-05-27T14:14:57;100586.84;;;21.05;48.57
25722;BME280;13578;53.450;15.496;2023-05-27T14:17:58;100555.84;;;21.00;45.95
25722;BME280;13578;53.450;15.496;2023-05-27T14:21:05;100550.47;;;20.98;45.29
25722;BME280;13578;53.450;15.496;2023-05-27T14:24:06;100555.72;;;20.93;45.96
25722;BME280;13578;53.450;15.496;2023-05-27T14:27:07;100542.88;;;20.92;45.43
25722;BME280;13578;53.450;15.496;2023-05-27T14:30:08;100555.22;;;20.89;46.24
25722;BME280;13578;53.450;15.496;2023-05-27T14:33:09;100552.09;;;20.92;45.99
25722;BME280;13578;53.450;15.496;2023-05-27T14:36:10;100574.97;;;20.88;48.88
25722;BME280;13578;53.450;15.496;2023-05-27T14:39:11;100548.59;;;20.90;46.63
25722;BME280;13578;53.450;15.496;2023-05-27T14:42:11;100556.81;;;20.92;46.83
25722;BME280;13578;53.450;15.496;2023-05-27T14:45:12;100535.22;;;20.86;45.74
25722;BME280;13578;53.450;15.496;2023-05-27T14:48:12;100529.75;;;20.77;45.22
25722;BME280;13578;53.450;15.496;2023-05-27T14:51:13;100500.84;;;20.70;43.24
25722;BME280;13578;53.450;15.496;2023-05-27T14:54:14;100489.53;;;20.49;43.13
25722;BME280;13578;53.450;15.496;2023-05-27T14:57:14;100513.78;;;20.40;44.96
25722;BME280;13578;53.450;15.496;2023-05-27T15:00:15;100515.41;;;20.57;45.33
25722;BME280;13578;53.450;15.496;2023-05-27T15:03:16;100515.16;;;20.67;45.69
25722;BME280;13578;53.450;15.496;2023-05-27T15:06:16;100505.94;;;20.67;44.28
25722;BME280;13578;53.450;15.496;2023-05-27T15:09:17;100492.78;;;20.75;43.46
25722;BME280;13578;53.450;15.496;2023-05-27T15:12:17;100499.84;;;20.63;44.42
25722;BME280;13578;53.450;15.496;2023-05-27T15:15:19;100495.41;;;20.54;44.42
25722;BME280;13578;53.450;15.496;2023-05-27T15:18:23;100475.25;;;20.43;42.73
25722;BME280;13578;53.450;15.496;2023-05-27T15:21:25;100476.19;;;20.36;43.13
25722;BME280;13578;53.450;15.496;2023-05-27T15:24:26;100497.81;;;20.34;45.16
25722;BME280;13578;53.450;15.496;2023-05-27T15:27:26;100471.25;;;20.23;43.36
25722;BME280;13578;53.450;15.496;2023-05-27T15:30:27;100481.75;;;20.12;43.91
25722;BME280;13578;53.450;15.496;2023-05-27T15:33:28;100466.59;;;20.15;42.76